sensor_id;sensor_type;location;lat;lon;timestamp;P1;durP1;ratioP1;P2;durP2;ratioP2
39698;SDS011;25372;50.582;12.250;2023-05-16T00:09:30;9.48;;;4.20;;
39698;SDS011;25372;50.582;12.250;2023-05-16T00:19:52;10.88;;;5.10;;
39698;SDS011;25372;50.582;12.250;2023-05-16T00:30:16;7.28;;;4.70;;
39698;SDS011;25372;50.582;12.250;2023-05-16T00:40:38;12.32;;;4.45;;
39698;SDS011;25372;50.582;12.250;2023-05-16T00:51:02;7.43;;;5.13;;
39698;SDS011;25372;50.582;12.250;2023-05-16T01:01:29;9.40;;;4.82;;
39698;SDS011;25372;50.582;12.250;2023-05-16T01:11:51;7.60;;;4.63;;
39698;SDS011;25372;50.582;12.250;2023-05-16T01:22:25;9.98;;;4.20;;
39698;SDS011;25372;50.582;12.250;2023-05-16T01:32:52;8.73;;;4.72;;
39698;SDS011;25372;50.582;12.250;2023-05-16T01:43:14;8.88;;;4.55;;
39698;SDS011;25372;50.582;12.250;2023-05-16T01:53:41;12.13;;;6.88;;
39698;SDS011;25372;50.582;12.250;2023-05-16T02:14:27;8.45;;;5.35;;
39698;SDS011;25372;50.582;12.250;2023-05-16T02:24:49;8.18;;;4.97;;
39698;SDS011;25372;50.582;12.250;2023-05-16T02:35:12;12.32;;;5.82;;
39698;SDS011;25372;50.582;12.250;2023-05-16T02:45:33;10.43;;;5.13;;
39698;SDS011;25372;50.582;12.250;2023-05-16T02:55:55;9.23;;;5.45;;
39698;SDS011;25372;50.582;12.250;2023-05-16T03:06:16;12.30;;;5.90;;
39698;SDS011;25372;50.582;12.250;2023-05-16T03:16:39;10.00;;;5.88;;
39698;SDS011;25372;50.582;12.250;2023-05-16T03:27:02;9.40;;;5.57;;
39698;SDS011;25372;50.582;12.250;2023-05-16T03:37:25;10.48;;;6.28;;
39698;SDS011;25372;50.582;12.250;2023-05-16T03:47:47;13.40;;;7.03;;
39698;SDS011;25372;50.582;12.250;2023-05-16T03:58:09;9.68;;;5.95;;
39698;SDS011;25372;50.582;12.250;2023-05-16T04:08:31;9.52;;;5.68;;
39698;SDS011;25372;50.582;12.250;2023-05-16T04:18:53;11.70;;;6.25;;
39698;SDS011;25372;50.582;12.250;2023-05-16T04:29:14;11.82;;;6.60;;
39698;SDS011;25372;50.582;12.250;2023-05-16T04:39:36;14.30;;;5.75;;
39698;SDS011;25372;50.582;12.250;2023-05-16T04:49:57;9.00;;;6.05;;
39698;SDS011;25372;50.582;12.250;2023-05-16T05:00:20;10.07;;;5.60;;
39698;SDS011;25372;50.582;12.250;2023-05-16T05:10:41;12.68;;;7.03;;
39698;SDS011;25372;50.582;12.250;2023-05-16T05:21:04;12.38;;;6.90;;
39698;SDS011;25372;50.582;12.250;2023-05-16T05:31:24;13.45;;;7.20;;
39698;SDS011;25372;50.582;12.250;2023-05-16T05:41:47;15.10;;;7.90;;
39698;SDS011;25372;50.582;12.250;2023-05-16T05:52:08;17.42;;;9.43;;
39698;SDS011;25372;50.582;12.250;2023-05-16T06:02:30;18.30;;;8.27;;
39698;SDS011;25372;50.582;12.250;2023-05-16T06:12:51;20.25;;;7.95;;
39698;SDS011;25372;50.582;12.250;2023-05-16T06:23:13;20.83;;;8.82;;
39698;SDS011;25372;50.582;12.250;2023-05-16T06:33:34;25.63;;;10.88;;
39698;SDS011;25372;50.582;12.250;2023-05-16T06:43:56;27.40;;;11.70;;
39698;SDS011;25372;50.582;12.250;2023-05-16T06:54:17;23.77;;;9.73;;
39698;SDS011;25372;50.582;12.250;2023-05-16T07:04:39;21.17;;;10.63;;
39698;SDS011;25372;50.582;12.250;2023-05-16T07:15:01;15.35;;;7.35;;
39698;SDS011;25372;50.582;12.250;2023-05-16T07:25:23;12.63;;;6.43;;
39698;SDS011;25372;50.582;12.250;2023-05-16T07:35:44;14.90;;;7.25;;
39698;SDS011;25372;50.582;12.250;2023-05-16T07:46:06;17.30;;;7.65;;
39698;SDS011;25372;50.582;12.250;2023-05-16T07:56:26;10.55;;;6.13;;
39698;SDS011;25372;50.582;12.250;2023-05-16T08:06:49;9.85;;;5.45;;
39698;SDS011;25372;50.582;12.250;2023-05-16T08:17:09;12.63;;;5.65;;
39698;SDS011;25372;50.582;12.250;2023-05-16T08:27:31;12.65;;;5.07;;
39698;SDS011;25372;50.582;12.250;2023-05-16T08:37:52;11.27;;;5.15;;
39698;SDS011;25372;50.582;12.250;2023-05-16T08:48:14;7.53;;;4.32;;
39698;SDS011;25372;50.582;12.250;2023-05-16T08:58:36;7.22;;;3.95;;
39698;SDS011;25372;50.582;12.250;2023-05-16T09:09:00;7.85;;;4.15;;
39698;SDS011;25372;50.582;12.250;2023-05-16T09:19:23;8.80;;;5.23;;
39698;SDS011;25372;50.582;12.250;2023-05-16T09:29:45;6.35;;;4.05;;
39698;SDS011;25372;50.582;12.250;2023-05-16T09:40:09;7.05;;;4.70;;
39698;SDS011;25372;50.582;12.250;2023-05-16T09:50:32;6.32;;;4.38;;
39698;SDS011;25372;50.582;12.250;2023-05-16T10:00:53;10.80;;;4.38;;
39698;SDS011;25372;50.582;12.250;2023-05-16T10:11:16;6.60;;;4.47;;
39698;SDS011;25372;50.582;12.250;2023-05-16T10:21:38;6.03;;;4.25;;
39698;SDS011;25372;50.582;12.250;2023-05-16T10:32:03;7.05;;;4.28;;
39698;SDS011;25372;50.582;12.250;2023-05-16T10:42:25;4.07;;;3.08;;
39698;SDS011;25372;50.582;12.250;2023-05-16T10:52:47;5.38;;;3.65;;
39698;SDS011;25372;50.582;12.250;2023-05-16T11:03:18;5.20;;;3.60;;
39698;SDS011;25372;50.582;12.250;2023-05-16T11:13:54;4.60;;;2.83;;
39698;SDS011;25372;50.582;12.250;2023-05-16T11:24:26;4.75;;;2.55;;
39698;SDS011;25372;50.582;12.250;2023-05-16T11:34:49;5.20;;;3.15;;
39698;SDS011;25372;50.582;12.250;2023-05-16T11:45:11;4.63;;;3.03;;
39698;SDS011;25372;50.582;12.250;2023-05-16T11:55:38;2.95;;;2.20;;
39698;SDS011;25372;50.582;12.250;2023-05-16T12:06:01;3.05;;;2.40;;
39698;SDS011;25372;50.582;12.250;2023-05-16T12:16:23;3.30;;;2.55;;
39698;SDS011;25372;50.582;12.250;2023-05-16T12:26:44;2.00;;;1.70;;
39698;SDS011;25372;50.582;12.250;2023-05-16T12:37:06;1.95;;;1.77;;
39698;SDS011;25372;50.582;12.250;2023-05-16T12:47:33;4.28;;;3.03;;
39698;SDS011;25372;50.582;12.250;2023-05-16T12:57:56;2.80;;;2.08;;
39698;SDS011;25372;50.582;12.250;2023-05-16T13:08:17;3.78;;;1.75;;
39698;SDS011;25372;50.582;12.250;2023-05-16T13:18:40;3.58;;;2.60;;
39698;SDS011;25372;50.582;12.250;2023-05-16T13:29:01;3.65;;;2.55;;
39698;SDS011;25372;50.582;12.250;2023-05-16T13:39:22;4.07;;;2.70;;
39698;SDS011;25372;50.582;12.250;2023-05-16T13:49:43;3.97;;;1.88;;
39698;SDS011;25372;50.582;12.250;2023-05-16T14:00:06;3.90;;;2.22;;
39698;SDS011;25372;50.582;12.250;2023-05-16T14:10:33;1.98;;;1.75;;
39698;SDS011;25372;50.582;12.250;2023-05-16T14:20:55;4.68;;;1.20;;
39698;SDS011;25372;50.582;12.250;2023-05-16T14:31:16;3.85;;;2.13;;
39698;SDS011;25372;50.582;12.250;2023-05-16T14:41:38;2.65;;;1.80;;
39698;SDS011;25372;50.582;12.250;2023-05-16T14:51:59;6.97;;;1.80;;
39698;SDS011;25372;50.582;12.250;2023-05-16T15:02:21;3.92;;;1.77;;
39698;SDS011;25372;50.582;12.250;2023-05-16T15:12:42;4.25;;;1.83;;
39698;SDS011;25372;50.582;12.250;2023-05-16T15:23:04;1.42;;;1.23;;
39698;SDS011;25372;50.582;12.250;2023-05-16T15:33:26;2.55;;;1.60;;
39698;SDS011;25372;50.582;12.250;2023-05-16T15:43:48;3.08;;;1.17;;
39698;SDS011;25372;50.582;12.250;2023-05-16T15:54:09;1.10;;;1.00;;
39698;SDS011;25372;50.582;12.250;2023-05-16T16:04:31;1.35;;;1.13;;
39698;SDS011;25372;50.582;12.250;2023-05-16T16:14:52;8.60;;;1.38;;
39698;SDS011;25372;50.582;12.250;2023-05-16T16:25:14;1.33;;;1.15;;
39698;SDS011;25372;50.582;12.250;2023-05-16T16:35:35;2.00;;;1.05;;
39698;SDS011;25372;50.582;12.250;2023-05-16T16:45:57;0.93;;;0.93;;
39698;SDS011;25372;50.582;12.250;2023-05-16T16:56:18;2.58;;;1.48;;
39698;SDS011;25372;50.582;12.250;2023-05-16T17:06:41;1.42;;;1.10;;
39698;SDS011;25372;50.582;12.250;2023-05-16T17:17:01;1.13;;;1.00;;
39698;SDS011;25372;50.582;12.250;2023-05-16T17:27:24;1.95;;;1.58;;
39698;SDS011;25372;50.582;12.250;2023-05-16T17:37:45;3.92;;;1.45;;
39698;SDS011;25372;50.582;12.250;2023-05-16T17:48:09;1.45;;;0.98;;
39698;SDS011;25372;50.582;12.250;2023-05-16T17:58:29;2.25;;;1.52;;
39698;SDS011;25372;50.582;12.250;2023-05-16T18:08:51;1.42;;;0.95;;
39698;SDS011;25372;50.582;12.250;2023-05-16T18:19:12;1.75;;;1.20;;
39698;SDS011;25372;50.582;12.250;2023-05-16T18:29:34;4.60;;;1.42;;
39698;SDS011;25372;50.582;12.250;2023-05-16T18:39:55;5.50;;;2.00;;
39698;SDS011;25372;50.582;12.250;2023-05-16T18:50:17;2.20;;;1.65;;
39698;SDS011;25372;50.582;12.250;2023-05-16T19:00:38;5.78;;;1.77;;
39698;SDS011;25372;50.582;12.250;2023-05-16T19:11:00;4.20;;;1.42;;
39698;SDS011;25372;50.582;12.250;2023-05-16T19:21:21;6.97;;;0.85;;
39698;SDS011;25372;50.582;12.250;2023-05-16T19:31:43;5.50;;;1.23;;
39698;SDS011;25372;50.582;12.250;2023-05-16T19:42:04;3.65;;;1.08;;
39698;SDS011;25372;50.582;12.250;2023-05-16T19:52:27;3.15;;;1.00;;
39698;SDS011;25372;50.582;12.250;2023-05-16T20:02:48;3.97;;;1.02;;
39698;SDS011;25372;50.582;12.250;2023-05-16T20:13:10;1.80;;;0.77;;
39698;SDS011;25372;50.582;12.250;2023-05-16T20:23:33;0.68;;;0.68;;
39698;SDS011;25372;50.582;12.250;2023-05-16T20:33:57;0.65;;;0.65;;
39698;SDS011;25372;50.582;12.250;2023-05-16T20:44:18;0.98;;;0.73;;
39698;SDS011;25372;50.582;12.250;2023-05-16T20:54:41;2.72;;;0.70;;
39698;SDS011;25372;50.582;12.250;2023-05-16T21:05:02;0.63;;;0.60;;
39698;SDS011;25372;50.582;12.250;2023-05-16T21:15:25;0.73;;;0.60;;
39698;SDS011;25372;50.582;12.250;2023-05-16T21:25:46;6.38;;;0.98;;
39698;SDS011;25372;50.582;12.250;2023-05-16T21:36:08;3.63;;;1.05;;
39698;SDS011;25372;50.582;12.250;2023-05-16T21:46:28;0.70;;;0.70;;
39698;SDS011;25372;50.582;12.250;2023-05-16T21:56:50;1.30;;;1.25;;
39698;SDS011;25372;50.582;12.250;2023-05-16T22:07:11;0.70;;;0.70;;
39698;SDS011;25372;50.582;12.250;2023-05-16T22:17:33;1.35;;;0.82;;
39698;SDS011;25372;50.582;12.250;2023-05-16T22:27:54;1.05;;;0.95;;
39698;SDS011;25372;50.582;12.250;2023-05-16T22:38:16;1.00;;;0.63;;
39698;SDS011;25372;50.582;12.250;2023-05-16T22:48:36;0.60;;;0.60;;
39698;SDS011;25372;50.582;12.250;2023-05-16T22:58:58;1.40;;;0.80;;
39698;SDS011;25372;50.582;12.250;2023-05-16T23:09:19;2.97;;;0.70;;
39698;SDS011;25372;50.582;12.250;2023-05-16T23:19:42;1.17;;;0.70;;
39698;SDS011;25372;50.582;12.250;2023-05-16T23:30:03;2.63;;;0.52;;
39698;SDS011;25372;50.582;12.250;2023-05-16T23:40:27;1.00;;;0.80;;
39698;SDS011;25372;50.582;12.250;2023-05-16T23:50:48;4.57;;;0.82;;
